createdAt,value
2018-06-09T03:02:03.089Z,98.05
2018-06-09T03:04:02.912Z,98.33
2018-06-09T03:05:03.811Z,98.96
2018-06-09T03:06:04.408Z,99.82
2018-06-09T03:07:04.630Z,99.34
2018-06-09T03:08:01.156Z,99.53
2018-06-09T03:09:01.361Z,99.15
2018-06-09T03:10:01.435Z,99.44
2018-06-09T03:11:01.557Z,99.24
2018-06-09T03:12:01.737Z,99.24
2018-06-09T03:13:01.947Z,99.24
2018-06-09T03:14:02.173Z,99.15
2018-06-09T03:15:02.463Z,98.81
2018-06-09T03:16:02.555Z,98.81
2018-06-09T03:17:02.730Z,97.95
2018-06-09T03:18:02.902Z,97.66
2018-06-09T03:19:03.095Z,98.24
2018-06-09T03:20:03.243Z,98.91
2018-06-09T03:21:03.471Z,99.19
2018-06-09T03:22:03.544Z,99.39
2018-06-09T03:23:03.712Z,99.99
2018-06-09T03:24:03.988Z,99.99
2018-06-09T03:25:04.067Z,99.99
2018-06-09T03:26:04.213Z,99.99
2018-06-09T03:27:04.357Z,99.87
2018-06-09T03:28:04.568Z,99.96
2018-06-09T03:29:04.703Z,99.99
2018-06-09T03:30:04.990Z,99.10
2018-06-09T03:31:05.088Z,99.48
2018-06-09T03:32:05.240Z,99.10
2018-06-09T03:33:05.343Z,99.99
2018-06-09T03:34:05.569Z,99.87
2018-06-09T03:35:05.723Z,99.77
2018-06-09T03:36:05.910Z,99.99
2018-06-09T03:37:06.170Z,99.77
2018-06-09T03:38:06.291Z,99.68
2018-06-09T03:39:06.384Z,99.68
2018-06-09T03:40:06.584Z,99.29
2018-06-09T03:41:06.811Z,99.01
2018-06-09T03:42:07.046Z,97.95
2018-06-09T03:43:07.181Z,97.18
2018-06-09T03:44:07.271Z,97.56
2018-06-09T03:45:07.504Z,97.47
2018-06-09T03:46:07.680Z,97.18
2018-06-09T03:47:07.776Z,96.99
2018-06-09T03:48:07.934Z,97.56
2018-06-09T03:49:08.022Z,97.28
2018-06-09T03:50:08.277Z,97.18
2018-06-09T03:51:08.375Z,97.23
2018-06-09T03:52:08.619Z,97.42
2018-06-09T03:53:08.748Z,98.10
2018-06-09T03:54:08.942Z,98.14
2018-06-09T03:55:09.138Z,98.19
2018-06-09T03:56:09.277Z,97.90
2018-06-09T03:57:09.478Z,98.00
2018-06-09T03:58:09.615Z,98.00
2018-06-09T03:59:09.775Z,98.00
2018-06-09T04:00:10.000Z,98.19
2018-06-09T04:01:10.189Z,97.42
2018-06-09T04:02:10.386Z,96.56
2018-06-09T04:03:10.538Z,96.47
2018-06-09T04:04:10.740Z,96.56
2018-06-09T04:05:10.769Z,96.18
2018-06-09T04:06:11.040Z,95.60
2018-06-09T04:07:11.249Z,96.37
2018-06-09T04:08:11.398Z,95.98
2018-06-09T04:09:11.595Z,95.51
2018-06-09T04:10:11.825Z,95.70
2018-06-09T04:11:11.901Z,95.60
2018-06-09T04:12:12.029Z,95.70
2018-06-09T04:13:12.339Z,96.18
2018-06-09T04:14:12.405Z,96.27
2018-06-09T04:15:12.601Z,95.98
2018-06-09T04:16:12.811Z,96.18
2018-06-09T04:17:12.983Z,96.18
2018-06-09T04:18:13.058Z,95.98
2018-06-09T04:19:13.294Z,96.08
2018-06-09T04:20:13.526Z,96.08
2018-06-09T04:21:13.625Z,96.08
2018-06-09T04:22:13.801Z,96.13
2018-06-09T04:23:13.944Z,96.66
2018-06-09T04:24:14.053Z,96.13
2018-06-09T04:25:14.247Z,96.51
2018-06-09T04:26:14.422Z,96.22
2018-06-09T04:27:14.494Z,95.94
2018-06-09T04:28:14.781Z,96.51
2018-06-09T04:29:14.876Z,96.70
2018-06-09T04:30:15.140Z,96.61
2018-06-09T04:31:15.348Z,97.38
2018-06-09T04:32:15.486Z,98.05
2018-06-09T04:33:15.609Z,98.14
2018-06-09T04:34:15.792Z,98.33
2018-06-09T04:35:16.001Z,99.01
2018-06-09T04:36:16.109Z,98.62
2018-06-09T04:37:16.311Z,98.53
2018-06-09T04:38:17.592Z,99.10
2018-06-09T04:39:16.578Z,99.10
2018-06-09T04:40:16.852Z,98.33
2018-06-09T04:41:17.011Z,98.43
2018-06-09T04:42:17.273Z,98.33
2018-06-09T04:43:17.351Z,98.38
2018-06-09T04:44:17.529Z,98.29
2018-06-09T04:45:17.712Z,98.38
2018-06-09T04:46:17.966Z,98.10
2018-06-09T04:47:18.017Z,97.71
2018-06-09T04:48:18.171Z,97.33
2018-06-09T04:49:18.396Z,97.71
2018-06-09T04:50:18.562Z,97.61
2018-06-09T04:51:18.735Z,97.14
2018-06-09T04:52:18.915Z,96.94
2018-06-09T04:53:19.040Z,97.33
2018-06-09T04:54:19.846Z,96.80
2018-06-09T04:55:19.408Z,96.56
2018-06-09T04:56:19.495Z,96.85
2018-06-09T04:57:19.786Z,96.94
2018-06-09T04:58:19.834Z,96.85
2018-06-09T04:59:20.150Z,96.75
2018-06-09T05:00:20.268Z,97.71
2018-06-09T05:01:20.455Z,97.33
2018-06-09T05:02:20.619Z,97.42
2018-06-09T05:03:20.829Z,97.52
2018-06-09T05:04:20.899Z,97.42
2018-06-09T05:05:21.138Z,97.61
2018-06-09T05:06:21.328Z,98.00
2018-06-09T05:07:21.478Z,98.10
2018-06-09T05:08:21.709Z,98.29
2018-06-09T05:09:21.934Z,97.91
2018-06-09T05:10:21.994Z,97.91
2018-06-09T05:11:22.143Z,98.00
2018-06-09T05:12:22.279Z,98.00
2018-06-09T05:13:22.424Z,97.76
2018-06-09T05:14:22.774Z,97.66
2018-06-09T05:15:22.873Z,97.38
2018-06-09T05:16:22.960Z,97.76
2018-06-09T05:17:23.310Z,97.47
2018-06-09T05:18:25.348Z,96.99
2018-06-09T05:19:23.490Z,97.19
2018-06-09T05:20:24.457Z,97.14
2018-06-09T05:21:23.856Z,97.33
2018-06-09T05:22:24.011Z,96.66
2018-06-09T05:23:24.244Z,96.75
2018-06-09T05:24:24.414Z,95.70
2018-06-09T05:25:24.480Z,95.89
2018-06-09T05:26:24.802Z,95.70
2018-06-09T05:27:24.745Z,95.07
2018-06-09T05:28:24.911Z,95.36
2018-06-09T05:29:25.123Z,95.45
2018-06-09T05:30:25.265Z,94.98
2018-06-09T05:31:25.535Z,94.78
2018-06-09T05:32:25.752Z,95.26
2018-06-09T05:33:25.844Z,94.68
2018-06-09T05:34:25.980Z,94.21
2018-06-09T05:35:26.241Z,94.30
2018-06-09T05:36:26.483Z,94.88
2018-06-09T05:37:26.516Z,94.88
2018-06-09T05:38:26.698Z,94.49
2018-06-09T05:39:26.875Z,94.21
2018-06-09T05:40:27.018Z,94.21
2018-06-09T05:41:27.328Z,94.78
2018-06-09T05:42:27.567Z,94.88
2018-06-09T05:43:27.566Z,93.82
2018-06-09T05:44:27.816Z,94.40
2018-06-09T05:45:27.953Z,93.53
2018-06-09T05:46:27.989Z,93.77
2018-06-09T05:47:28.293Z,93.87
2018-06-09T05:48:28.511Z,93.77
2018-06-09T05:49:28.683Z,93.73
2018-06-09T05:50:28.790Z,93.73
2018-06-09T05:51:29.026Z,93.68
2018-06-09T05:52:30.078Z,93.68
2018-06-09T05:53:29.411Z,93.87
2018-06-09T05:54:29.527Z,93.87
2018-06-09T05:55:29.660Z,93.48
2018-06-09T05:56:29.839Z,93.68
2018-06-09T05:57:30.117Z,93.68
2018-06-09T05:58:30.392Z,93.38
2018-06-09T05:59:30.529Z,94.15
2018-06-09T06:00:31.349Z,94.25
2018-06-09T06:01:30.932Z,93.87
2018-06-09T06:02:31.009Z,93.58
2018-06-09T06:03:31.139Z,93.58
2018-06-09T06:11:43.966Z,93.53
2018-06-09T06:12:44.353Z,92.95
2018-06-09T06:13:47.582Z,93.05
2018-06-09T06:14:46.716Z,93.24
2018-06-09T06:15:46.071Z,93.33
2018-06-09T06:17:45.226Z,92.57
2018-06-09T06:18:46.977Z,91.75
2018-06-09T06:19:44.263Z,91.46
2018-06-09T06:20:43.095Z,90.88
2018-06-09T06:21:43.487Z,91.07
2018-06-09T06:22:43.618Z,90.97
2018-06-09T06:23:44.134Z,90.83
2018-06-09T06:24:45.524Z,89.58
2018-06-09T06:27:29.785Z,89.39
2018-06-09T06:28:32.366Z,88.85
2018-06-09T06:29:29.404Z,88.27
2018-06-09T06:30:29.372Z,87.50
2018-06-09T06:31:30.010Z,87.02
2018-06-09T06:32:30.542Z,85.86
2018-06-09T06:33:37.785Z,85.42
2018-06-09T06:36:28.254Z,85.71
2018-06-09T06:37:12.012Z,85.42
2018-06-09T06:38:07.303Z,86.00
2018-06-09T06:40:05.886Z,87.06
2018-06-09T06:41:06.027Z,86.77
2018-06-09T06:42:21.269Z,86.77
2018-06-09T06:43:04.161Z,85.85
2018-06-09T06:44:04.172Z,85.46
2018-06-09T06:45:06.080Z,85.46
2018-06-09T06:46:07.113Z,85.17
2018-06-09T06:47:07.512Z,85.46
2018-06-09T06:53:31.371Z,82.90
2018-06-09T06:54:10.395Z,82.23
2018-06-09T06:55:10.358Z,80.91
2018-06-09T06:56:12.178Z,81.01
2018-06-09T06:57:16.555Z,80.62
2018-06-09T06:58:14.644Z,79.95
2018-06-09T06:59:36.756Z,80.14
2018-06-09T07:03:49.816Z,80.08
2018-06-09T07:04:51.842Z,79.60
2018-06-09T07:05:51.100Z,79.31
2018-06-09T07:08:25.476Z,79.80
2018-06-09T07:09:26.834Z,79.50
2018-06-09T07:27:34.425Z,78.48
2018-06-09T07:34:12.600Z,74.01
2018-06-09T07:35:12.680Z,73.66
2018-06-09T07:36:13.436Z,73.99
2018-06-09T07:37:13.306Z,73.79
2018-06-09T07:38:13.658Z,71.95
2018-06-09T07:39:15.563Z,72.73
2018-06-09T07:41:47.410Z,71.31
2018-06-09T07:46:48.681Z,66.37
2018-06-09T07:47:50.610Z,63.85
2018-06-09T07:49:49.481Z,62.69
2018-06-09T07:50:48.496Z,62.49
2018-06-09T07:51:50.254Z,60.94
2018-06-09T07:52:48.050Z,60.85
2018-06-09T07:53:47.001Z,63.59
2018-06-09T07:54:46.250Z,63.30
2018-06-09T07:55:46.577Z,62.43
2018-06-09T07:56:47.101Z,64.95
2018-06-09T07:57:46.880Z,65.43
2018-06-09T07:58:47.030Z,63.30
2018-06-09T07:59:47.352Z,62.43
2018-06-09T08:00:47.529Z,64.37
2018-06-09T08:01:47.712Z,64.98
2018-06-09T08:02:47.749Z,62.52
2018-06-09T08:03:48.501Z,65.92
2018-06-09T08:04:49.236Z,68.37
2018-06-09T08:05:48.738Z,61.78
2018-06-09T08:06:48.474Z,62.98
2018-06-09T08:07:48.832Z,61.29
2018-06-09T08:08:49.028Z,60.84
2018-06-09T08:09:49.493Z,64.04
2018-06-09T08:10:49.406Z,62.78
2018-06-09T08:11:49.627Z,60.68
2018-06-09T08:12:49.736Z,60.28
2018-06-09T08:13:49.927Z,59.80
2018-06-09T08:14:50.407Z,61.58
2018-06-09T08:15:50.440Z,60.22
2018-06-09T08:16:50.509Z,61.38
2018-06-09T08:17:50.644Z,60.35
2018-06-09T08:18:50.955Z,58.04
2018-06-09T08:19:50.990Z,58.75
2018-06-09T08:20:51.161Z,58.46
2018-06-09T08:21:51.383Z,55.76
2018-06-09T08:22:51.656Z,53.40
2018-06-09T08:23:51.686Z,52.84
2018-06-09T08:24:51.889Z,52.45
2018-06-09T08:25:52.241Z,53.75
2018-06-09T08:26:52.731Z,52.04
2018-06-09T08:27:52.942Z,51.36
2018-06-09T09:40:31.446Z,47.33
2018-06-09T09:41:28.727Z,46.45
2018-06-09T09:44:06.138Z,45.50
2018-06-09T09:46:10.218Z,45.59
2018-06-09T09:46:34.430Z,46.86
2018-06-09T09:47:14.870Z,44.03
2018-06-09T09:50:12.290Z,43.95
2018-06-09T09:51:26.168Z,45.52
2018-06-09T09:52:18.755Z,44.73
2018-06-09T09:53:14.391Z,42.68
2018-06-09T09:54:10.784Z,43.63
2018-06-09T09:55:10.933Z,43.24
2018-06-09T09:56:13.488Z,44.42
2018-06-09T09:57:12.443Z,45.89
2018-06-09T09:58:12.040Z,44.73
2018-06-09T09:59:11.598Z,43.95
2018-06-09T10:00:11.890Z,44.46
2018-06-09T10:01:11.966Z,41.41
2018-06-09T10:02:12.437Z,42.60
2018-06-09T10:03:13.279Z,44.17
2018-06-09T10:04:12.712Z,43.41
2018-06-09T10:05:12.782Z,40.16
2018-06-09T10:06:15.541Z,40.16
2018-06-09T10:07:28.827Z,39.59
2018-06-09T10:10:45.733Z,41.94
2018-06-09T10:13:17.584Z,40.29
2018-06-09T10:16:41.565Z,37.58
2018-06-09T10:18:50.073Z,36.46
2018-06-09T10:22:12.359Z,34.89
2018-06-09T10:24:17.853Z,35.97
2018-06-09T10:36:05.709Z,30.19
2018-06-09T10:37:17.270Z,32.45
2018-06-09T10:38:20.723Z,31.88
2018-06-09T10:45:08.799Z,30.43
2018-06-09T10:50:26.137Z,26.92
2018-06-09T10:53:11.664Z,26.91
2018-06-09T10:55:09.254Z,27.62
2018-06-09T10:59:56.248Z,29.06
2018-06-09T11:03:28.643Z,27.80
2018-06-09T11:04:29.910Z,28.30
2018-06-09T11:05:33.879Z,28.03
2018-06-09T11:10:43.518Z,24.77
2018-06-09T11:14:56.134Z,25.46
2018-06-09T11:16:01.096Z,26.27
2018-06-09T11:16:59.418Z,26.98
2018-06-09T12:16:44.857Z,26.93
2018-06-09T12:17:46.063Z,27.43
2018-06-09T12:19:16.559Z,27.34
2018-06-09T12:19:48.541Z,26.74
2018-06-09T12:25:43.022Z,26.87
2018-06-09T12:40:36.425Z,22.55
2018-06-09T12:42:36.205Z,22.77
2018-06-09T14:53:18.732Z,50.78
2018-06-09T16:09:23.200Z,55.47
2018-06-09T16:10:17.571Z,54.89
2018-06-09T16:12:17.067Z,55.66
2018-06-09T16:13:18.287Z,56.74
2018-06-09T16:15:43.385Z,55.57
2018-06-09T16:29:33.127Z,55.76
2018-06-09T16:30:32.919Z,55.47
2018-06-09T16:31:32.904Z,55.76
2018-06-09T16:32:32.693Z,55.64
2018-06-09T16:33:32.960Z,54.57
2018-06-09T16:34:33.144Z,53.08
2018-06-09T16:35:33.216Z,50.78
2018-06-09T16:36:33.424Z,50.26
2018-06-09T16:37:33.653Z,49.68
2018-06-09T16:38:33.824Z,50.46
2018-06-09T16:39:33.924Z,49.97
2018-06-09T16:40:34.184Z,50.07
2018-06-09T16:41:34.318Z,51.33
2018-06-09T16:42:34.535Z,51.40
2018-06-09T16:43:34.685Z,52.47
2018-06-09T16:44:34.935Z,52.76
2018-06-09T16:45:35.371Z,53.64
2018-06-09T16:46:35.363Z,54.00
2018-06-09T16:47:36.263Z,54.88
2018-06-09T16:48:35.659Z,55.46
2018-06-09T16:49:35.879Z,55.75
2018-06-09T16:50:35.950Z,56.60
2018-06-09T16:51:36.300Z,57.28
2018-06-09T16:52:36.664Z,58.15
2018-06-09T16:53:36.556Z,58.22
2018-06-09T16:54:36.852Z,58.41
2018-06-09T16:55:37.018Z,58.90
2018-06-09T16:56:37.138Z,59.87
2018-06-09T16:57:37.314Z,60.35
2018-06-09T16:58:37.641Z,60.16
2018-06-09T16:59:37.682Z,60.94
2018-06-09T17:00:37.907Z,61.61
2018-06-09T17:01:38.233Z,62.29
2018-06-09T17:02:38.238Z,61.81
2018-06-09T17:03:38.458Z,61.22
2018-06-09T17:04:38.769Z,62.19
2018-06-09T17:05:38.799Z,62.29
2018-06-09T17:06:38.909Z,61.52
2018-06-09T17:07:39.100Z,62.26
2018-06-09T17:08:39.296Z,62.26
2018-06-09T17:09:39.540Z,63.33
2018-06-09T17:10:39.679Z,62.36
2018-06-09T17:11:39.840Z,63.72
2018-06-09T17:12:39.959Z,63.98
2018-06-09T17:13:40.181Z,63.69
2018-06-09T17:14:40.347Z,64.62
2018-06-09T17:15:40.725Z,64.75
2018-06-09T17:16:40.686Z,65.30
2018-06-09T17:17:40.833Z,65.69
2018-06-09T17:18:41.029Z,65.20
2018-06-09T17:19:41.297Z,65.50
2018-06-09T17:20:41.533Z,65.30
2018-06-09T17:21:41.682Z,65.59
2018-06-09T17:22:41.781Z,65.11
2018-06-09T17:23:42.014Z,64.65
2018-06-09T17:24:42.272Z,64.07
2018-06-09T17:25:42.313Z,65.14
2018-06-09T17:26:42.547Z,64.17
2018-06-09T17:27:42.669Z,64.56
2018-06-09T17:28:42.961Z,64.75
2018-06-09T17:29:43.296Z,64.47
2018-06-09T17:30:43.321Z,65.34
2018-06-09T17:31:43.590Z,65.92
2018-06-09T17:32:43.984Z,65.92
2018-06-09T17:33:43.981Z,66.37
2018-06-09T17:34:44.036Z,67.14
2018-06-09T17:35:44.361Z,66.95
2018-06-09T17:36:44.501Z,66.95
2018-06-09T17:37:44.895Z,66.08
2018-06-09T17:38:45.004Z,65.69
2018-06-09T17:39:45.077Z,65.59
2018-06-09T17:40:45.194Z,65.20
2018-06-09T17:41:45.331Z,65.08
2018-06-09T17:42:45.885Z,64.24
2018-06-09T17:43:45.711Z,63.14
2018-06-09T17:44:45.950Z,63.34
2018-06-09T17:45:46.199Z,63.17
2018-06-09T17:46:46.336Z,63.62
2018-06-09T17:47:46.566Z,63.53
2018-06-09T17:48:46.847Z,63.92
2018-06-09T17:49:46.924Z,63.62
2018-06-09T17:50:47.173Z,64.30
2018-06-09T17:51:47.454Z,64.69
2018-06-09T17:52:47.489Z,64.59
2018-06-09T17:53:48.269Z,65.85
2018-06-09T17:54:48.771Z,65.17
2018-06-09T17:55:48.982Z,63.62
2018-06-09T17:56:48.521Z,64.89
2018-06-09T17:57:49.499Z,60.98
2018-06-09T17:58:48.918Z,61.08
2018-06-09T17:59:49.767Z,61.56
2018-06-09T18:00:49.918Z,62.43
2018-06-09T18:01:49.448Z,61.66
2018-06-09T18:02:50.275Z,62.24
2018-06-09T18:03:49.646Z,61.95
2018-06-09T18:04:49.761Z,62.34
2018-06-09T18:05:50.111Z,60.75
2018-06-09T18:06:50.300Z,60.57
2018-06-09T18:07:50.304Z,61.05
2018-06-09T18:08:50.640Z,60.11
2018-06-09T18:09:50.709Z,60.50
2018-06-09T18:10:50.927Z,61.56
2018-06-09T18:11:51.197Z,61.05
2018-06-09T18:12:51.336Z,62.30
2018-06-09T18:13:51.542Z,62.50
2018-06-09T18:14:51.631Z,63.46
2018-06-09T18:15:51.817Z,63.66
2018-06-09T18:16:51.982Z,63.46
2018-06-09T18:20:40.421Z,65.75
2018-06-09T18:21:40.406Z,65.85
2018-06-09T18:22:40.251Z,67.01
2018-06-09T18:23:41.250Z,67.40
2018-06-09T18:24:38.148Z,67.69
2018-06-09T18:25:38.149Z,68.46
2018-06-09T18:26:38.316Z,68.52
2018-06-09T18:27:38.583Z,68.62
2018-06-09T18:28:38.672Z,69.53
2018-06-09T18:29:38.815Z,69.40
2018-06-09T18:30:38.957Z,69.30
2018-06-09T18:31:39.067Z,70.36
2018-06-09T18:32:39.333Z,70.36
2018-06-09T18:33:39.623Z,71.04
2018-06-09T18:34:39.743Z,71.14
2018-06-09T18:35:39.838Z,71.72
2018-06-09T18:36:40.034Z,71.97
2018-06-09T18:37:40.310Z,72.39
2018-06-09T18:38:40.557Z,72.30
2018-06-09T18:39:40.647Z,72.20
2018-06-09T18:40:40.754Z,72.30
2018-06-09T18:41:41.073Z,72.74
2018-06-09T18:42:41.186Z,73.22
2018-06-09T18:43:41.418Z,73.42
2018-06-09T18:44:41.558Z,73.96
2018-06-09T18:45:41.865Z,74.54
2018-06-09T18:46:41.998Z,74.25
2018-06-09T18:47:42.147Z,74.29
2018-06-09T18:48:42.577Z,74.29
2018-06-09T18:49:42.654Z,73.86
2018-06-09T18:50:42.698Z,74.35
2018-06-09T18:51:42.883Z,74.29
2018-06-09T18:52:43.085Z,74.35
2018-06-09T18:53:43.197Z,74.19
2018-06-09T18:54:43.522Z,73.28
2018-06-09T18:55:43.740Z,74.16
2018-06-09T18:56:43.657Z,73.80
2018-06-09T18:57:43.987Z,74.35
2018-06-09T18:58:44.219Z,74.73
2018-06-09T18:59:44.366Z,73.96
2018-06-09T19:00:44.493Z,74.54
2018-06-09T19:01:44.690Z,74.25
2018-06-09T19:02:44.792Z,74.35
2018-06-09T19:03:44.974Z,74.44
2018-06-09T19:04:45.178Z,75.18
2018-06-09T19:05:45.355Z,74.41
2018-06-09T19:06:45.476Z,75.22
2018-06-09T19:07:45.708Z,74.73
2018-06-09T19:08:45.991Z,75.37
2018-06-09T19:09:46.095Z,74.69
2018-06-09T19:10:46.177Z,74.51
2018-06-09T19:11:46.326Z,74.12
2018-06-09T19:12:46.675Z,74.35
2018-06-09T19:13:46.668Z,74.54
2018-06-09T19:14:47.211Z,74.54
2018-06-09T19:15:47.116Z,75.12
2018-06-09T19:16:47.436Z,75.51
2018-06-09T19:17:47.361Z,75.60
2018-06-09T19:18:47.779Z,76.24
2018-06-09T19:19:47.816Z,76.34
2018-06-09T19:20:47.947Z,76.43
2018-06-09T19:21:48.076Z,75.76
2018-06-09T19:22:48.513Z,76.15
2018-06-09T19:23:48.481Z,76.72
2018-06-09T19:24:48.685Z,77.01
2018-06-09T19:25:48.823Z,77.11
2018-06-09T19:26:49.037Z,76.63
2018-06-09T19:27:49.096Z,77.11
2018-06-09T19:28:49.355Z,77.21
2018-06-09T19:29:49.540Z,76.72
2018-06-09T19:30:49.750Z,76.92
2018-06-09T19:31:49.983Z,76.82
2018-06-09T19:32:50.143Z,77.30
2018-06-09T19:33:50.209Z,77.11
2018-06-09T19:34:50.331Z,77.21
2018-06-09T19:35:50.679Z,77.11
2018-06-09T19:36:50.733Z,77.01
2018-06-09T19:37:50.940Z,77.69
2018-06-09T19:38:51.070Z,77.69
2018-06-09T19:39:51.334Z,77.50
2018-06-09T19:40:51.783Z,77.88
2018-06-09T19:41:51.763Z,77.98
2018-06-09T19:42:51.831Z,77.69
2018-06-09T19:43:52.040Z,77.88
2018-06-09T19:44:52.346Z,77.21
2018-06-09T19:45:52.752Z,77.30
2018-06-09T19:46:52.803Z,77.55
2018-06-09T19:47:52.889Z,77.84
2018-06-09T19:48:53.102Z,77.75
2018-06-09T19:49:53.298Z,77.94
2018-06-09T19:50:53.494Z,78.71
2018-06-09T19:51:53.765Z,78.13
2018-06-09T19:52:53.755Z,78.81
2018-06-09T19:53:53.897Z,78.71
2018-06-09T19:54:54.285Z,78.61
2018-06-09T19:55:54.285Z,78.61
2018-06-09T19:56:54.847Z,79.58
2018-06-09T19:57:54.837Z,79.19
2018-06-09T19:58:55.061Z,79.10
2018-06-09T19:59:55.160Z,79.39
2018-06-09T20:00:55.447Z,78.81
2018-06-09T20:01:55.804Z,78.91
2018-06-09T20:02:55.771Z,79.10
2018-06-09T20:03:56.162Z,79.19
2018-06-09T20:04:56.205Z,79.49
2018-06-09T20:05:56.500Z,79.10
2018-06-09T20:06:56.485Z,79.87
2018-06-09T20:07:56.868Z,79.49
2018-06-09T20:08:56.982Z,78.91
2018-06-09T20:09:57.179Z,78.61
2018-06-09T20:10:57.439Z,78.52
2018-06-09T20:11:57.588Z,78.61
2018-06-09T20:12:57.724Z,78.71
2018-06-09T20:13:58.009Z,78.81
2018-06-09T20:14:58.127Z,79.00
2018-06-09T20:15:58.477Z,78.61
2018-06-09T20:16:58.698Z,79.19
2018-06-09T20:17:58.753Z,79.29
2018-06-09T20:18:58.913Z,78.61
2018-06-09T20:19:59.077Z,78.91
2018-06-09T20:20:59.212Z,79.97
2018-06-09T20:21:59.317Z,78.71
2018-06-09T20:22:59.663Z,79.44
2018-06-09T20:23:59.745Z,80.45
2018-06-09T20:24:59.991Z,78.91
2018-06-09T20:26:00.166Z,79.39
2018-06-09T20:27:01.026Z,79.29
2018-06-09T20:28:00.447Z,79.54
2018-06-09T20:29:00.812Z,79.10
2018-06-09T20:30:01.176Z,79.93
2018-06-09T20:31:01.020Z,80.06
2018-06-09T20:32:01.200Z,79.19
2018-06-09T20:33:01.542Z,79.10
2018-06-09T20:34:02.664Z,79.44
2018-06-09T20:35:01.948Z,80.02
2018-06-09T20:36:01.953Z,79.93
2018-06-09T20:37:02.173Z,81.09
2018-06-09T20:38:02.309Z,80.79
2018-06-09T20:39:02.667Z,81.27
2018-06-09T20:40:02.752Z,81.27
2018-06-09T20:41:03.001Z,81.18
2018-06-09T20:42:03.102Z,81.37
2018-06-09T20:43:03.236Z,81.47
2018-06-09T20:44:03.504Z,81.85
2018-06-09T20:45:03.592Z,82.05
2018-06-09T20:46:03.984Z,81.37
2018-06-09T20:47:03.969Z,81.76
2018-06-09T20:48:04.197Z,81.47
2018-06-09T20:49:04.522Z,81.33
2018-06-09T20:50:04.516Z,82.05
2018-06-09T20:51:04.720Z,81.95
2018-06-09T20:52:05.009Z,82.14
2018-06-09T20:53:05.041Z,82.82
2018-06-09T20:54:05.245Z,82.72
2018-06-09T20:55:05.347Z,82.68
2018-06-09T20:56:05.539Z,82.49
2018-06-09T20:57:05.673Z,82.72
2018-06-09T20:58:05.872Z,82.43
2018-06-09T20:59:06.012Z,82.72
2018-06-09T21:00:06.232Z,82.20
2018-06-09T21:01:06.406Z,82.39
2018-06-09T21:02:06.640Z,82.01
2018-06-09T21:03:06.822Z,82.39
2018-06-09T21:04:06.925Z,82.72
2018-06-09T21:05:07.103Z,82.53
2018-06-09T21:06:07.252Z,82.43
2018-06-09T21:07:07.999Z,82.68
2018-06-09T21:08:07.617Z,82.53
2018-06-09T21:09:07.887Z,82.43
2018-06-09T21:10:07.963Z,82.59
2018-06-09T21:11:08.091Z,82.01
2018-06-09T21:12:08.236Z,82.10
2018-06-09T21:13:08.479Z,82.49
2018-06-09T21:14:08.675Z,81.91
2018-06-09T21:15:08.837Z,82.10
2018-06-09T21:16:09.094Z,81.62
2018-06-09T21:17:09.257Z,81.43
2018-06-09T21:18:09.385Z,81.04
2018-06-09T21:19:09.684Z,81.33
2018-06-09T21:20:09.776Z,81.52
2018-06-09T21:21:10.010Z,81.43
2018-06-09T21:22:10.073Z,82.10
2018-06-09T21:23:10.287Z,82.29
2018-06-09T21:24:10.494Z,82.49
2018-06-09T21:25:10.695Z,82.49
2018-06-09T21:26:10.888Z,82.68
2018-06-09T21:27:11.085Z,82.68
2018-06-09T21:28:11.217Z,83.16
2018-06-09T21:29:11.453Z,82.78
2018-06-09T21:30:11.506Z,82.29
2018-06-09T21:31:11.719Z,83.26
2018-06-09T21:32:11.880Z,82.97
2018-06-09T21:33:12.164Z,83.36
2018-06-09T21:34:12.272Z,83.07
2018-06-09T21:35:12.400Z,83.26
2018-06-09T21:36:12.514Z,83.07
2018-06-09T21:37:12.741Z,83.16
2018-06-09T21:38:12.931Z,83.16
2018-06-09T21:39:13.161Z,82.59
2018-06-09T21:40:13.440Z,82.49
2018-06-09T21:41:13.516Z,82.59
2018-06-09T21:42:13.746Z,82.97
2018-06-09T21:43:13.913Z,82.59
2018-06-09T21:44:14.056Z,83.36
2018-06-09T21:45:14.170Z,83.94
2018-06-09T21:46:14.485Z,84.22
2018-06-09T21:47:14.589Z,84.32
2018-06-09T21:48:14.701Z,83.64
2018-06-09T21:49:14.869Z,83.55
